Time;durP1;ratioP1;P1;durP2;ratioP2;P2;SDS_P1;SDS_P2;PMS_P1;PMS_P2;Temp;Humidity;BMP_temperature;BMP_pressure;BME280_temperature;BME280_humidity;BME280_pressure;Samples;Min_cycle;Max_cycle;Signal;HPM_P1;HPM_P2
2021/10/23 00:00:05;;;;;;;1.90;0.75;;;;;;;8.78;83.62;102540.59;5035454;28;20029;-70
2021/10/23 00:02:30;;;;;;;3.90;0.95;;;;;;;8.80;83.88;102545.91;5033966;28;20029;-68
2021/10/23 00:04:56;;;;;;;6.28;0.82;;;;;;;8.81;84.41;102550.34;5035356;28;20041;-68
2021/10/23 00:07:21;;;;;;;6.40;1.73;;;;;;;8.82;83.41;102536.41;5035290;28;20492;-69
2021/10/23 00:09:46;;;;;;;6.18;1.15;;;;;;;8.83;83.57;102553.03;5035148;28;20138;-68
2021/10/23 00:12:12;;;;;;;7.40;1.00;;;;;;;8.86;82.09;102540.09;5035314;28;20189;-70
2021/10/23 00:14:37;;;;;;;14.70;1.55;;;;;;;8.93;81.61;102536.94;5033946;28;20029;-69
2021/10/23 00:17:03;;;;;;;11.15;1.25;;;;;;;8.98;81.96;102550.28;5035379;28;20386;-69
2021/10/23 00:19:28;;;;;;;8.60;0.98;;;;;;;9.02;80.47;102541.75;5035321;28;20469;-69
2021/10/23 00:21:53;;;;;;;6.90;1.20;;;;;;;9.02;80.15;102545.31;5035185;28;20032;-69
2021/10/23 00:24:19;;;;;;;4.20;0.90;;;;;;;9.04;80.11;102541.00;5033787;28;20036;-70
2021/10/23 00:26:44;;;;;;;11.82;1.50;;;;;;;9.08;79.38;102545.59;5035141;28;20076;-69
2021/10/23 00:29:09;;;;;;;6.07;0.90;;;;;;;9.09;79.75;102550.03;5033568;28;20108;-70
2021/10/23 00:31:35;;;;;;;5.18;1.15;;;;;;;9.10;80.17;102551.84;5033582;28;20037;-69
2021/10/23 00:34:00;;;;;;;8.63;1.42;;;;;;;9.08;80.00;102545.59;5033547;28;20121;-69
2021/10/23 00:36:25;;;;;;;9.35;1.02;;;;;;;9.06;81.12;102541.09;5033554;28;20512;-69
2021/10/23 00:38:51;;;;;;;11.68;1.42;;;;;;;9.00;80.92;102546.94;5034574;28;20665;-69
2021/10/23 00:41:16;;;;;;;13.13;1.30;;;;;;;8.98;81.49;102559.09;5034613;28;20109;-69
2021/10/23 00:43:44;;;;;;;6.97;1.20;;;;;;;8.93;83.33;102548.34;5033621;28;20064;-70
2021/10/23 00:46:14;;;;;;;10.27;1.10;;;;;;;8.93;81.84;102545.72;5034643;28;20029;-68
2021/10/23 00:48:40;;;;;;;8.50;1.83;;;;;;;8.99;79.04;102529.38;5034609;28;20025;-69
2021/10/23 00:51:05;;;;;;;9.05;0.82;;;;;;;9.07;78.73;102533.28;5034479;28;20034;-69
2021/10/23 00:53:32;;;;;;;8.40;1.77;;;;;;;9.13;78.94;102539.66;5025114;28;20080;-68
2021/10/23 00:55:57;;;;;;;5.80;0.98;;;;;;;9.19;78.20;102537.34;5014536;28;20025;-68
2021/10/23 00:58:23;;;;;;;6.47;1.27;;;;;;;9.22;79.12;102542.75;5014383;28;20485;-70
2021/10/23 01:00:48;;;;;;;3.95;1.00;;;;;;;9.19;80.53;102555.75;5013135;28;20493;-70
2021/10/23 01:03:14;;;;;;;5.53;1.10;;;;;;;9.11;82.41;102556.28;5014553;28;20184;-69
2021/10/23 01:05:41;;;;;;;7.05;1.38;;;;;;;9.08;81.16;102555.19;5013785;28;20104;-70
2021/10/23 01:08:06;;;;;;;6.10;0.85;;;;;;;9.01;82.51;102561.88;5014342;28;20038;-69
2021/10/23 01:10:32;;;;;;;11.30;1.35;;;;;;;8.93;83.54;102574.59;5013186;28;20025;-68
2021/10/23 01:12:58;;;;;;;6.07;1.20;;;;;;;8.88;82.89;102567.31;5014395;28;20034;-68
2021/10/23 01:15:29;;;;;;;8.13;1.20;;;;;;;8.87;83.99;102576.00;5014138;28;20072;-68
2021/10/23 01:17:57;;;;;;;9.32;1.20;;;;;;;8.87;81.51;102560.25;5014173;28;20065;-68
2021/10/23 01:20:24;;;;;;;5.85;1.27;;;;;;;8.86;83.92;102558.47;5014114;28;20444;-69
2021/10/23 01:22:50;;;;;;;10.95;0.95;;;;;;;8.80;83.62;102559.03;5013192;28;20069;-68
2021/10/23 01:25:17;;;;;;;10.43;1.17;;;;;;;8.74;84.72;102557.00;5014018;28;20092;-69
2021/10/23 01:27:43;;;;;;;6.88;1.10;;;;;;;8.67;84.86;102560.13;5014034;28;20410;-69
2021/10/23 01:30:11;;;;;;;11.63;1.05;;;;;;;8.59;84.32;102549.22;5014079;28;20057;-69
2021/10/23 01:32:36;;;;;;;8.68;1.13;;;;;;;8.56;83.36;102543.84;5012879;28;20477;-70
2021/10/23 01:35:03;;;;;;;7.43;1.17;;;;;;;8.53;84.54;102548.00;5014015;28;20109;-70
2021/10/23 01:37:40;;;;;;;3.33;0.70;;;;;;;8.47;87.21;102564.34;5013931;28;20033;-68
2021/10/23 01:40:08;;;;;;;11.55;1.63;;;;;;;8.39;85.88;102561.25;5013848;28;20084;-68
2021/10/23 01:42:34;;;;;;;10.85;1.13;;;;;;;8.36;89.34;102566.34;5013902;28;20500;-70
2021/10/23 01:44:59;;;;;;;7.40;1.27;;;;;;;8.30;88.73;102571.25;5013743;28;20022;-70
2021/10/23 01:47:24;;;;;;;4.97;1.30;;;;;;;8.27;88.33;102561.53;5013902;28;20409;-69
2021/10/23 01:49:50;;;;;;;8.65;1.40;;;;;;;8.24;88.40;102570.94;5013828;28;20041;-69
2021/10/23 01:52:16;;;;;;;5.88;0.80;;;;;;;8.23;90.20;102571.75;5013734;28;20394;-68
2021/10/23 01:54:42;;;;;;;8.60;1.10;;;;;;;8.16;90.20;102565.28;5032477;28;20033;-69
2021/10/23 01:57:07;;;;;;;6.70;1.17;;;;;;;8.09;90.89;102568.41;5033270;28;20025;-68
2021/10/23 01:59:32;;;;;;;7.90;1.73;;;;;;;7.98;92.33;102570.44;5031960;28;20047;-68
2021/10/23 02:01:58;;;;;;;8.25;1.00;;;;;;;7.87;93.68;102572.44;5032090;28;20112;-69
2021/10/23 02:04:23;;;;;;;6.60;0.90;;;;;;;7.73;93.33;102563.84;5033156;28;20017;-69
2021/10/23 02:06:48;;;;;;;4.03;0.70;;;;;;;7.64;95.10;102573.78;5033047;28;20029;-68
2021/10/23 02:09:14;;;;;;;16.23;1.42;;;;;;;7.54;95.17;102575.00;5033230;28;20033;-68
2021/10/23 02:11:39;;;;;;;3.22;0.98;;;;;;;7.47;94.97;102572.81;5033387;28;20029;-69
2021/10/23 02:14:05;;;;;;;5.68;1.17;;;;;;;7.36;94.90;102572.19;5031933;28;20029;-68
2021/10/23 02:16:30;;;;;;;6.20;1.15;;;;;;;7.29;95.13;102563.94;5031640;28;20021;-69
2021/10/23 02:18:55;;;;;;;5.53;0.85;;;;;;;7.21;94.94;102561.75;5033082;28;20212;-69
2021/10/23 02:21:21;;;;;;;8.85;1.50;;;;;;;7.15;95.71;102576.19;5033106;28;20065;-68
2021/10/23 02:23:46;;;;;;;8.20;1.05;;;;;;;7.06;96.67;102589.66;5031735;28;20472;-69
2021/10/23 02:26:12;;;;;;;3.45;0.80;;;;;;;6.98;96.72;102586.56;5033084;28;20055;-69
2021/10/23 02:28:38;;;;;;;8.15;1.10;;;;;;;6.92;96.97;102586.22;5033026;28;20025;-70
2021/10/23 02:31:03;;;;;;;7.50;1.10;;;;;;;6.84;97.32;102587.47;5033043;28;20060;-69
2021/10/23 02:33:29;;;;;;;3.58;0.70;;;;;;;6.82;98.20;102591.72;5032907;28;20025;-68
2021/10/23 02:35:54;;;;;;;8.02;1.00;;;;;;;6.73;98.75;102587.72;5031847;28;20025;-70
2021/10/23 02:38:20;;;;;;;7.78;2.15;;;;;;;6.68;98.90;102581.31;5032802;28;20038;-69
2021/10/23 02:40:45;;;;;;;11.70;1.65;;;;;;;6.65;98.94;102581.13;5031858;28;20440;-69
2021/10/23 02:43:10;;;;;;;4.97;0.85;;;;;;;6.54;97.92;102577.84;5031644;28;20030;-69
2021/10/23 02:45:36;;;;;;;5.75;1.33;;;;;;;6.47;98.68;102580.00;5032985;28;20030;-68
2021/10/23 02:48:01;;;;;;;12.88;1.38;;;;;;;6.46;100.00;102586.03;5031440;28;20584;-68
2021/10/23 02:50:27;;;;;;;3.97;1.30;;;;;;;6.38;100.00;102585.59;5032992;28;20033;-69
2021/10/23 02:52:53;;;;;;;7.32;0.95;;;;;;;6.32;100.00;102588.72;5027575;28;20064;-69
2021/10/23 02:55:19;;;;;;;7.63;1.00;;;;;;;6.32;100.00;102593.94;5012971;28;20061;-68
2021/10/23 02:57:44;;;;;;;5.00;1.77;;;;;;;6.29;100.00;102588.50;5013001;28;20108;-69
2021/10/23 03:00:10;;;;;;;9.43;1.20;;;;;;;6.22;100.00;102594.16;5013088;28;20033;-68
2021/10/23 03:02:36;;;;;;;6.82;1.33;;;;;;;6.18;100.00;102594.78;5012947;28;20018;-69
2021/10/23 03:05:03;;;;;;;3.30;0.70;;;;;;;6.17;100.00;102598.19;5013123;28;20531;-69
2021/10/23 03:07:31;;;;;;;3.58;1.00;;;;;;;6.06;100.00;102598.44;5012871;28;20022;-68
2021/10/23 03:09:57;;;;;;;4.32;1.10;;;;;;;6.02;100.00;102601.69;5012939;28;20038;-69
2021/10/23 03:12:23;;;;;;;5.47;0.93;;;;;;;5.97;100.00;102595.22;5011795;28;20036;-69
2021/10/23 03:14:48;;;;;;;5.88;0.82;;;;;;;6.00;100.00;102598.03;5012684;28;20022;-69
2021/10/23 03:17:14;;;;;;;4.35;1.42;;;;;;;5.94;100.00;102602.88;4994958;28;20509;-68
2021/10/23 03:19:39;;;;;;;5.75;1.05;;;;;;;5.88;100.00;102608.56;5012753;28;20036;-68
2021/10/23 03:22:04;;;;;;;13.48;1.10;;;;;;;5.87;100.00;102613.69;5013026;28;20022;-68
2021/10/23 03:24:30;;;;;;;7.05;1.30;;;;;;;5.90;100.00;102606.06;5012742;28;20109;-69
2021/10/23 03:26:55;;;;;;;8.23;1.13;;;;;;;5.87;100.00;102611.09;5012739;28;20046;-69
2021/10/23 03:29:20;;;;;;;5.68;1.08;;;;;;;5.81;100.00;102608.09;5016240;28;20021;-69
2021/10/23 03:31:46;;;;;;;3.50;1.15;;;;;;;5.75;100.00;102611.19;5016242;28;20022;-69
2021/10/23 03:34:11;;;;;;;5.40;1.20;;;;;;;5.73;100.00;102616.31;5016291;28;20040;-68
2021/10/23 03:36:37;;;;;;;6.15;1.52;;;;;;;5.71;100.00;102615.34;5016408;28;20033;-68
2021/10/23 03:39:03;;;;;;;5.22;0.82;;;;;;;5.66;100.00;102611.53;5015992;28;20092;-68
2021/10/23 03:41:29;;;;;;;9.43;1.50;;;;;;;5.72;100.00;102616.22;5015919;28;20042;-70
2021/10/23 03:43:54;;;;;;;6.10;1.50;;;;;;;5.69;100.00;102616.94;5016102;28;20038;-68
2021/10/23 03:46:19;;;;;;;3.53;1.40;;;;;;;5.76;100.00;102623.47;5015927;28;20022;-69
2021/10/23 03:48:45;;;;;;;8.68;1.00;;;;;;;5.71;100.00;102631.00;5015860;28;20037;-67
2021/10/23 03:51:10;;;;;;;10.02;1.60;;;;;;;5.68;100.00;102619.44;5016021;28;20056;-69
2021/10/23 03:53:35;;;;;;;7.65;1.23;;;;;;;5.71;100.00;102625.78;5026089;28;20021;-69
2021/10/23 03:56:01;;;;;;;9.25;1.67;;;;;;;5.73;100.00;102634.59;5035600;28;20033;-68
2021/10/23 03:58:26;;;;;;;6.10;1.42;;;;;;;5.68;100.00;102638.66;5035450;28;20032;-69
2021/10/23 04:00:52;;;;;;;6.20;1.25;;;;;;;5.68;100.00;102632.50;5035286;28;20036;-69
2021/10/23 04:03:18;;;;;;;3.85;1.00;;;;;;;5.71;100.00;102636.25;5035513;28;20084;-69
2021/10/23 04:05:43;;;;;;;14.75;2.05;;;;;;;5.73;100.00;102636.31;5035497;28;20108;-68
2021/10/23 04:08:09;;;;;;;8.23;2.15;;;;;;;5.61;100.00;102636.41;5034335;28;20148;-69
2021/10/23 04:10:34;;;;;;;6.75;1.45;;;;;;;5.63;100.00;102632.22;5035627;28;20034;-69
2021/10/23 04:12:59;;;;;;;6.57;1.45;;;;;;;5.58;100.00;102637.13;5035355;28;20048;-68
2021/10/23 04:15:25;;;;;;;10.38;1.65;;;;;;;5.62;100.00;102635.63;5035127;28;20064;-68
2021/10/23 04:17:50;;;;;;;3.90;1.30;;;;;;;5.62;100.00;102634.75;5033936;28;20040;-68
2021/10/23 04:20:15;;;;;;;8.25;1.50;;;;;;;5.61;100.00;102628.59;5035166;28;20030;-69
2021/10/23 04:22:41;;;;;;;8.10;2.15;;;;;;;5.65;100.00;102624.47;5035539;28;20470;-70
2021/10/23 04:25:06;;;;;;;11.13;1.63;;;;;;;5.63;100.00;102634.84;5033448;28;20119;-70
2021/10/23 04:27:32;;;;;;;14.75;1.85;;;;;;;5.64;100.00;102627.88;5034950;28;20041;-68
2021/10/23 04:29:57;;;;;;;6.65;1.38;;;;;;;5.69;100.00;102632.59;5034912;28;20477;-69
2021/10/23 04:32:22;;;;;;;8.30;1.60;;;;;;;5.72;100.00;102631.91;5034921;28;20116;-69
2021/10/23 04:34:48;;;;;;;8.60;1.33;;;;;;;5.72;100.00;102622.38;5033550;28;20416;-69
2021/10/23 04:37:14;;;;;;;9.95;1.85;;;;;;;5.75;100.00;102626.88;5033301;28;20017;-69
2021/10/23 04:39:39;;;;;;;8.45;1.70;;;;;;;5.77;100.00;102635.72;5033640;28;20029;-68
2021/10/23 04:42:05;;;;;;;10.50;1.88;;;;;;;5.80;100.00;102635.03;5034791;28;20033;-68
2021/10/23 04:44:30;;;;;;;12.48;2.03;;;;;;;5.82;100.00;102639.53;5034784;28;20037;-68
2021/10/23 04:46:55;;;;;;;11.00;1.88;;;;;;;5.86;100.00;102643.25;5034731;28;20040;-68
2021/10/23 04:49:21;;;;;;;11.93;2.10;;;;;;;5.91;100.00;102647.06;5034729;28;20029;-69
2021/10/23 04:51:46;;;;;;;8.20;2.47;;;;;;;5.96;100.00;102643.03;5033274;28;20116;-68
2021/10/23 04:54:11;;;;;;;10.90;3.92;;;;;;;6.00;100.00;102647.69;5019449;28;20030;-69
2021/10/23 04:56:37;;;;;;;16.60;2.80;;;;;;;6.06;100.00;102645.50;5013511;28;20044;-69
2021/10/23 04:59:02;;;;;;;8.40;2.15;;;;;;;6.07;100.00;102651.59;5014567;28;20045;-68
2021/10/23 05:01:27;;;;;;;6.40;1.85;;;;;;;6.09;100.00;102639.56;5014667;28;20629;-69
2021/10/23 05:03:53;;;;;;;6.68;1.85;;;;;;;6.12;100.00;102641.44;5014588;28;20026;-68
2021/10/23 05:06:19;;;;;;;10.15;2.08;;;;;;;6.13;100.00;102640.63;5013269;28;20030;-69
2021/10/23 05:08:44;;;;;;;9.25;1.80;;;;;;;6.12;100.00;102644.03;5014468;28;20531;-70
2021/10/23 05:11:09;;;;;;;6.07;1.75;;;;;;;6.08;100.00;102651.69;5014355;28;20058;-69
2021/10/23 05:13:35;;;;;;;8.50;2.22;;;;;;;6.07;100.00;102657.72;5014304;28;20022;-68
2021/10/23 05:16:01;;;;;;;10.65;2.33;;;;;;;6.05;100.00;102661.97;5014556;28;20053;-68
2021/10/23 05:18:26;;;;;;;10.57;1.98;;;;;;;5.99;100.00;102658.94;5014299;28;20383;-68
2021/10/23 05:20:52;;;;;;;10.50;1.80;;;;;;;6.00;100.00;102660.75;5014211;28;20488;-68
2021/10/23 05:23:18;;;;;;;10.05;2.63;;;;;;;6.04;100.00;102670.59;5014220;28;20535;-68
2021/10/23 05:25:44;;;;;;;17.45;3.28;;;;;;;6.03;100.00;102674.00;5013015;28;20133;-69
2021/10/23 05:28:09;;;;;;;11.80;2.45;;;;;;;6.04;100.00;102673.22;5013065;28;20398;-69
2021/10/23 05:30:35;;;;;;;12.73;2.03;;;;;;;6.06;100.00;102671.63;5014818;28;20104;-69
2021/10/23 05:33:00;;;;;;;9.43;2.13;;;;;;;6.06;100.00;102682.06;5014285;28;20045;-69
2021/10/23 05:35:26;;;;;;;11.98;1.90;;;;;;;6.10;100.00;102669.19;5014023;28;20022;-70
2021/10/23 05:37:51;;;;;;;10.57;2.67;;;;;;;6.17;100.00;102674.94;5013726;28;20070;-69
2021/10/23 05:40:16;;;;;;;6.93;2.20;;;;;;;6.17;100.00;102668.78;5012794;28;20493;-68
2021/10/23 05:42:42;;;;;;;16.70;2.17;;;;;;;6.20;100.00;102658.50;5012777;28;20029;-69
2021/10/23 05:45:08;;;;;;;7.00;1.92;;;;;;;6.23;100.00;102666.56;5013960;28;20497;-69
2021/10/23 05:47:33;;;;;;;8.40;2.08;;;;;;;6.25;100.00;102672.78;5013907;28;20045;-69
2021/10/23 05:49:59;;;;;;;8.93;1.95;;;;;;;6.31;100.00;102670.56;5013460;28;20036;-69
2021/10/23 05:52:24;;;;;;;12.65;2.45;;;;;;;6.33;100.00;102671.56;5013903;28;20426;-70
2021/10/23 05:54:50;;;;;;;14.63;2.50;;;;;;;6.36;100.00;102684.84;5032115;28;20030;-69
2021/10/23 05:57:15;;;;;;;8.77;2.25;;;;;;;6.40;100.00;102689.47;5033421;28;20481;-70
2021/10/23 05:59:42;;;;;;;9.13;1.70;;;;;;;6.44;100.00;102692.25;5033477;28;20053;-69
2021/10/23 06:02:31;;;;;;;13.30;2.70;;;;;;;6.49;100.00;102688.22;5033178;28;20034;-69
2021/10/23 06:04:56;;;;;;;11.52;2.35;;;;;;;6.55;100.00;102697.38;5032963;28;20083;-69
2021/10/23 06:07:26;;;;;;;12.80;2.40;;;;;;;6.57;100.00;102703.59;5033341;28;20091;-69
2021/10/23 06:09:52;;;;;;;11.23;2.15;;;;;;;6.58;100.00;102701.91;5033175;28;20030;-69
2021/10/23 06:12:18;;;;;;;8.93;2.63;;;;;;;6.59;100.00;102701.06;5033245;28;20033;-70
2021/10/23 06:14:43;;;;;;;12.43;2.65;;;;;;;6.62;100.00;102698.66;5033099;28;20477;-69
2021/10/23 06:17:09;;;;;;;10.77;2.72;;;;;;;6.65;100.00;102701.47;5033063;28;20444;-68
2021/10/23 06:19:37;;;;;;;8.88;2.63;;;;;;;6.69;100.00;102705.19;5033055;28;20097;-69
2021/10/23 06:22:05;;;;;;;10.43;2.78;;;;;;;6.73;100.00;102705.47;5031737;28;20068;-70
2021/10/23 06:24:30;;;;;;;9.55;2.63;;;;;;;6.77;100.00;102711.78;5032914;28;20520;-68
2021/10/23 06:26:56;;;;;;;8.73;2.40;;;;;;;6.82;100.00;102712.97;5032693;28;20049;-68
2021/10/23 06:29:21;;;;;;;10.40;3.10;;;;;;;6.85;100.00;102721.03;5031564;28;20040;-71
2021/10/23 06:31:47;;;;;;;13.52;2.22;;;;;;;6.89;100.00;102722.09;5032834;28;20033;-69
2021/10/23 06:34:12;;;;;;;17.17;2.85;;;;;;;6.93;100.00;102724.09;5032766;28;20045;-70
2021/10/23 06:36:37;;;;;;;10.50;2.28;;;;;;;6.98;100.00;102720.06;5032817;28;20026;-69
2021/10/23 06:39:03;;;;;;;15.05;3.13;;;;;;;7.04;100.00;102728.31;5032699;28;20021;-69
2021/10/23 06:41:30;;;;;;;8.63;2.45;;;;;;;7.10;100.00;102738.25;5032697;28;20026;-69
2021/10/23 06:43:55;;;;;;;7.45;2.58;;;;;;;7.14;100.00;102734.09;5031412;28;20030;-68
2021/10/23 06:46:23;;;;;;;11.52;2.72;;;;;;;7.18;100.00;102736.09;5031491;28;20116;-69
2021/10/23 06:48:48;;;;;;;13.02;2.88;;;;;;;7.22;100.00;102732.84;5031618;28;20038;-69
2021/10/23 06:51:15;;;;;;;10.65;2.38;;;;;;;7.26;100.00;102737.47;5032589;28;20039;-69
2021/10/23 06:53:40;;;;;;;16.30;3.28;;;;;;;7.29;100.00;102737.63;5021939;28;20068;-68
2021/10/23 06:56:05;;;;;;;8.70;2.85;;;;;;;7.32;100.00;102734.31;5012931;28;20029;-69
2021/10/23 06:58:31;;;;;;;12.75;2.88;;;;;;;7.35;100.00;102734.47;5012907;28;20026;-69
2021/10/23 07:00:56;;;;;;;9.85;2.63;;;;;;;7.38;100.00;102740.81;5012962;28;20419;-69
2021/10/23 07:03:21;;;;;;;12.00;3.22;;;;;;;7.42;100.00;102736.69;5015146;28;20104;-70
2021/10/23 07:05:47;;;;;;;12.15;3.05;;;;;;;7.47;100.00;102739.56;5016787;28;20018;-69
2021/10/23 07:08:13;;;;;;;13.65;3.42;;;;;;;7.52;100.00;102743.38;5016661;28;20049;-69
2021/10/23 07:10:39;;;;;;;14.93;3.78;;;;;;;7.57;100.00;102744.56;5016368;28;20429;-68
2021/10/23 07:13:04;;;;;;;13.10;4.43;;;;;;;7.63;100.00;102744.91;5016744;28;20025;-69
2021/10/23 07:15:30;;;;;;;8.95;4.68;;;;;;;7.69;100.00;102757.44;5016448;28;20036;-69
2021/10/23 07:17:56;;;;;;;9.50;3.83;;;;;;;7.75;100.00;102763.97;5016385;28;20022;-70
2021/10/23 07:20:24;;;;;;;14.98;3.42;;;;;;;7.83;100.00;102753.94;5016288;28;20044;-69
2021/10/23 07:22:50;;;;;;;12.63;4.07;;;;;;;7.88;100.00;102759.44;5016369;28;20049;-69
2021/10/23 07:25:15;;;;;;;11.82;4.00;;;;;;;7.96;100.00;102755.53;5016358;28;20449;-69
2021/10/23 07:27:41;;;;;;;12.65;4.35;;;;;;;8.04;100.00;102761.25;5015179;28;20031;-68
2021/10/23 07:30:10;;;;;;;19.02;5.03;;;;;;;8.10;100.00;102759.88;5014894;28;20034;-69
2021/10/23 07:32:38;;;;;;;17.77;4.72;;;;;;;8.16;100.00;102763.69;5015197;28;20050;-70
2021/10/23 07:35:04;;;;;;;20.83;5.85;;;;;;;8.23;100.00;102760.56;5016052;28;20026;-69
2021/10/23 07:37:29;;;;;;;13.63;4.65;;;;;;;8.30;100.00;102767.97;5014656;28;20073;-69
2021/10/23 07:39:55;;;;;;;16.52;5.68;;;;;;;8.38;100.00;102771.03;5015975;28;20454;-69
2021/10/23 07:42:20;;;;;;;11.95;5.30;;;;;;;8.44;100.00;102774.03;5014728;28;20030;-70
2021/10/23 07:44:46;;;;;;;16.48;6.28;;;;;;;8.49;100.00;102777.84;5015789;28;20045;-69
2021/10/23 07:47:11;;;;;;;12.60;6.53;;;;;;;8.56;100.00;102785.25;5014601;28;20382;-69
2021/10/23 07:49:37;;;;;;;15.15;6.93;;;;;;;8.63;100.00;102781.25;5016005;28;20038;-69
2021/10/23 07:52:03;;;;;;;19.67;6.75;;;;;;;8.73;100.00;102787.91;5014400;28;20096;-70
2021/10/23 07:54:28;;;;;;;14.00;6.53;;;;;;;8.82;100.00;102784.84;5032837;28;20358;-70
2021/10/23 07:56:53;;;;;;;27.70;9.38;;;;;;;8.83;100.00;102791.94;5034288;28;20424;-71
2021/10/23 07:59:21;;;;;;;19.50;8.10;;;;;;;8.92;100.00;102792.44;5035423;28;20030;-69
2021/10/23 08:01:46;;;;;;;16.50;7.63;;;;;;;8.99;100.00;102791.94;5035408;28;20087;-70
2021/10/23 08:04:12;;;;;;;21.85;8.57;;;;;;;9.07;100.00;102793.25;5035240;28;20440;-68
2021/10/23 08:06:37;;;;;;;16.10;8.63;;;;;;;9.07;100.00;102795.00;5033868;28;20539;-69
2021/10/23 08:09:11;;;;;;;24.75;9.27;;;;;;;9.13;100.00;102791.78;5034991;28;20108;-69
2021/10/23 08:11:36;;;;;;;;;;;;;;;9.14;100.00;102796.22;5035511;28;20021;-69
2021/10/23 08:14:01;;;;;;;19.80;8.40;;;;;;;9.16;100.00;102794.59;5034829;28;20431;-70
2021/10/23 08:16:26;;;;;;;15.25;7.97;;;;;;;9.15;100.00;102798.03;5035125;28;20347;-69
2021/10/23 08:18:52;;;;;;;23.55;8.23;;;;;;;9.17;100.00;102792.06;5035002;28;20045;-70
2021/10/23 08:21:19;;;;;;;15.27;7.53;;;;;;;9.16;100.00;102795.50;5035143;28;20033;-69
2021/10/23 08:23:44;;;;;;;15.02;7.45;;;;;;;9.24;100.00;102811.69;5034845;28;20032;-69
2021/10/23 08:26:10;;;;;;;15.52;7.63;;;;;;;9.25;100.00;102805.56;5034657;28;20045;-69
2021/10/23 08:28:37;;;;;;;14.25;7.53;;;;;;;9.28;100.00;102800.50;5034887;28;20033;-68
2021/10/23 08:31:02;;;;;;;13.00;7.20;;;;;;;9.31;100.00;102805.03;5034830;28;20040;-69
2021/10/23 08:33:28;;;;;;;15.55;6.90;;;;;;;9.36;100.00;102814.97;5034649;28;20385;-69
2021/10/23 08:35:54;;;;;;;16.98;7.65;;;;;;;9.37;100.00;102815.84;5033371;28;20079;-68
2021/10/23 08:38:19;;;;;;;16.65;7.10;;;;;;;9.39;100.00;102814.22;5033411;28;20025;-70
2021/10/23 08:40:44;;;;;;;13.93;6.65;;;;;;;9.42;100.00;102820.53;5034499;28;20431;-69
2021/10/23 08:43:10;;;;;;;13.63;6.60;;;;;;;9.45;100.00;102819.78;5034576;28;20025;-69
2021/10/23 08:45:39;;;;;;;16.45;7.03;;;;;;;9.45;100.00;102815.47;5033182;28;20392;-68
2021/10/23 08:48:06;;;;;;;16.58;7.18;;;;;;;9.49;100.00;102826.13;5033082;28;20094;-69
2021/10/23 08:50:31;;;;;;;12.77;6.38;;;;;;;9.53;100.00;102828.09;5033010;28;20033;-68
2021/10/23 08:53:01;;;;;;;16.00;7.00;;;;;;;9.58;100.00;102821.34;5028334;28;20017;-68
2021/10/23 08:55:27;;;;;;;17.25;7.20;;;;;;;9.61;100.00;102830.28;5013397;28;20029;-69
2021/10/23 08:57:52;;;;;;;15.85;7.30;;;;;;;9.63;100.00;102825.13;5014512;28;20030;-68
2021/10/23 09:00:18;;;;;;;14.40;6.75;;;;;;;9.62;100.00;102828.56;5014487;28;20033;-69
2021/10/23 09:02:44;;;;;;;12.18;7.30;;;;;;;9.65;100.00;102833.09;5014460;28;20101;-69
2021/10/23 09:05:10;;;;;;;17.88;7.75;;;;;;;9.66;100.00;102838.44;5013123;28;20129;-70
2021/10/23 09:07:49;;;;;;;14.70;8.30;;;;;;;9.67;100.00;102829.72;5014246;28;20458;-71
2021/10/23 09:10:23;;;;;;;14.32;6.68;;;;;;;9.70;100.00;102834.22;5014240;28;20025;-71
2021/10/23 09:13:02;;;;;;;13.32;6.38;;;;;;;9.72;100.00;102829.94;5013239;28;20029;-70
2021/10/23 09:15:33;;;;;;;12.90;6.72;;;;;;;9.76;100.00;102832.81;5014126;28;20076;-71
2021/10/23 09:17:58;;;;;;;17.73;6.95;;;;;;;9.78;100.00;102831.19;5013878;28;20025;-71
2021/10/23 09:20:24;;;;;;;14.38;7.13;;;;;;;9.79;100.00;102834.69;5014244;28;20030;-70
2021/10/23 09:22:54;;;;;;;12.95;6.72;;;;;;;9.84;100.00;102834.94;5014074;28;20117;-70
2021/10/23 09:25:27;;;;;;;10.50;6.35;;;;;;;9.87;100.00;102829.84;5013529;28;20132;-72
2021/10/23 09:28:25;;;;;;;;;;;;;;;9.89;100.00;102828.19;5013010;28;20072;-70
2021/10/23 09:30:51;;;;;;;13.27;5.95;;;;;;;9.95;100.00;102839.03;4990974;28;19935;-70
2021/10/23 09:33:21;;;;;;;9.60;5.85;;;;;;;9.95;100.00;102832.03;5012872;28;20022;-71
2021/10/23 09:35:48;;;;;;;15.50;6.72;;;;;;;9.98;100.00;102827.75;5014114;28;20029;-70
2021/10/23 09:38:19;;;;;;;18.02;6.35;;;;;;;10.00;100.00;102837.53;5013765;28;20473;-69
2021/10/23 09:40:46;;;;;;;11.57;5.72;;;;;;;10.06;100.00;102836.94;5013928;28;20354;-71
2021/10/23 09:43:28;;;;;;;14.25;6.28;;;;;;;10.08;99.87;102835.31;5013157;28;20041;-69
2021/10/23 09:45:57;;;;;;;11.93;5.55;;;;;;;10.12;99.55;102822.38;5013921;28;20358;-71
2021/10/23 09:48:40;;;;;;;13.13;5.75;;;;;;;10.19;99.19;102827.97;5013909;28;20038;-71
2021/10/23 09:51:09;;;;;;;15.23;5.60;;;;;;;10.24;98.03;102823.81;5012617;28;20042;-72
2021/10/23 09:53:36;;;;;;;12.77;5.40;;;;;;;10.35;98.30;102829.63;5023464;28;20033;-72
2021/10/23 09:56:06;;;;;;;11.57;5.78;;;;;;;10.41;97.64;102836.09;5033414;28;20029;-71
2021/10/23 09:58:31;;;;;;;10.52;5.50;;;;;;;10.46;97.12;102816.19;5033356;28;20037;-73
2021/10/23 10:00:57;;;;;;;10.45;6.15;;;;;;;10.50;95.51;102826.84;5031958;28;20029;-71
2021/10/23 10:03:23;;;;;;;10.05;5.30;;;;;;;10.54;95.52;102820.91;5032009;28;20033;-72
2021/10/23 10:05:56;;;;;;;18.95;5.75;;;;;;;10.57;95.30;102828.97;5031954;28;20026;-72
2021/10/23 10:08:23;;;;;;;10.57;5.20;;;;;;;10.60;94.06;102821.22;5031904;28;20014;-72
2021/10/23 10:10:50;;;;;;;12.75;5.18;;;;;;;10.62;93.92;102830.06;5032017;28;20025;-72
2021/10/23 10:13:23;;;;;;;8.52;5.32;;;;;;;10.62;92.73;102835.34;5032002;28;20442;-72
2021/10/23 10:15:58;;;;;;;10.05;6.28;;;;;;;10.69;92.30;102842.75;5033113;28;20043;-72
2021/10/23 10:18:24;;;;;;;10.48;5.68;;;;;;;10.73;92.22;102833.22;5033180;28;20508;-74
2021/10/23 10:20:52;;;;;;;13.23;6.28;;;;;;;10.71;92.18;102833.16;5031844;28;20033;-73
2021/10/23 10:23:19;;;;;;;11.35;6.13;;;;;;;10.72;92.34;102842.88;5033137;28;20055;-73
2021/10/23 10:26:26;;;;;;;11.48;6.30;;;;;;;10.71;92.73;102841.06;5032280;28;20077;-71
2021/10/23 10:29:07;;;;;;;18.50;7.20;;;;;;;10.72;92.17;102842.88;5031789;28;20041;-71
2021/10/23 10:32:14;;;;;;;11.23;6.70;;;;;;;10.74;92.34;102842.94;5032102;28;20045;-72
2021/10/23 10:37:28;;;;;;;15.10;7.57;;;;;;;10.82;91.48;102838.06;5034926;28;20048;-73
2021/10/23 10:42:50;;;;;;;19.45;7.63;;;;;;;10.82;91.52;102843.31;5037926;28;20068;-73
2021/10/23 10:45:31;;;;;;;16.30;9.68;;;;;;;10.86;91.91;102842.63;5037572;28;20057;-73
2021/10/23 10:48:37;;;;;;;19.20;9.20;;;;;;;10.91;91.68;102846.41;5037477;28;20025;-72
2021/10/23 10:51:05;;;;;;;19.33;10.07;;;;;;;10.93;91.73;102852.63;5037384;28;20044;-72
2021/10/23 10:53:36;;;;;;;16.15;8.80;;;;;;;10.94;92.12;102844.78;5028157;28;20117;-72
2021/10/23 10:56:01;;;;;;;19.85;10.85;;;;;;;10.93;91.84;102850.91;5016311;28;20112;-71
2021/10/23 10:58:46;;;;;;;18.55;10.48;;;;;;;10.96;92.16;102850.16;5016014;28;20141;-72
2021/10/23 11:01:32;;;;;;;16.10;10.27;;;;;;;10.95;91.07;102841.34;5016081;28;20044;-72
2021/10/23 11:04:06;;;;;;;20.15;10.00;;;;;;;10.98;92.13;102845.84;5016171;28;20087;-73
2021/10/23 11:06:34;;;;;;;20.17;10.32;;;;;;;10.99;91.81;102852.94;5017485;28;20036;-73
2021/10/23 11:09:15;;;;;;;17.80;9.68;;;;;;;11.03;92.19;102849.59;5015987;28;20389;-72
2021/10/23 11:11:43;;;;;;;18.48;10.48;;;;;;;11.01;92.27;102840.72;5015971;28;20034;-71
2021/10/23 11:14:27;;;;;;;22.25;11.10;;;;;;;11.01;92.56;102843.34;5015943;28;20030;-71
2021/10/23 11:16:52;;;;;;;17.20;10.35;;;;;;;11.07;92.10;102833.13;5016198;28;20038;-73
2021/10/23 11:19:30;;;;;;;18.88;9.70;;;;;;;11.07;92.70;102833.13;5017022;28;20086;-72
2021/10/23 11:21:59;;;;;;;18.00;10.13;;;;;;;11.09;92.76;102830.53;5015823;28;20516;-72
2021/10/23 11:24:29;;;;;;;16.45;9.05;;;;;;;11.06;92.74;102828.66;5015757;28;20022;-73
2021/10/23 11:26:56;;;;;;;22.15;10.43;;;;;;;11.09;92.63;102843.72;5016961;28;20073;-72